sensor_id;sensor_type;location;lat;lon;timestamp;temperature;humidity
4245;DHT22;2136;48.502;9.194;2023-05-21T00:00:26;16.80;99.90
4245;DHT22;2136;48.502;9.194;2023-05-21T00:02:53;16.80;99.90
4245;DHT22;2136;48.502;9.194;2023-05-21T00:05:20;16.80;99.90
4245;DHT22;2136;48.502;9.194;2023-05-21T00:07:47;16.70;99.90
4245;DHT22;2136;48.502;9.194;2023-05-21T00:10:13;16.70;99.90
4245;DHT22;2136;48.502;9.194;2023-05-21T00:12:40;16.60;99.90
4245;DHT22;2136;48.502;9.194;2023-05-21T00:15:09;16.70;99.90
4245;DHT22;2136;48.502;9.194;2023-05-21T00:17:36;16.60;99.90
4245;DHT22;2136;48.502;9.194;2023-05-21T00:20:05;16.60;99.90
4245;DHT22;2136;48.502;9.194;2023-05-21T00:22:34;16.60;99.90
4245;DHT22;2136;48.502;9.194;2023-05-21T00:25:01;16.60;99.90
4245;DHT22;2136;48.502;9.194;2023-05-21T00:27:28;16.60;99.90
4245;DHT22;2136;48.502;9.194;2023-05-21T00:29:55;16.60;99.90
4245;DHT22;2136;48.502;9.194;2023-05-21T00:32:23;16.60;99.90
4245;DHT22;2136;48.502;9.194;2023-05-21T00:34:50;16.50;99.90
4245;DHT22;2136;48.502;9.194;2023-05-21T00:37:17;16.50;99.90
4245;DHT22;2136;48.502;9.194;2023-05-21T00:39:44;16.50;99.90
4245;DHT22;2136;48.502;9.194;2023-05-21T00:42:10;16.50;99.90
4245;DHT22;2136;48.502;9.194;2023-05-21T00:44:42;16.40;99.90
4245;DHT22;2136;48.502;9.194;2023-05-21T00:47:10;16.40;99.90
4245;DHT22;2136;48.502;9.194;2023-05-21T00:49:39;16.40;99.90
4245;DHT22;2136;48.502;9.194;2023-05-21T00:52:06;16.40;99.90
4245;DHT22;2136;48.502;9.194;2023-05-21T00:54:33;16.30;99.90
4245;DHT22;2136;48.502;9.194;2023-05-21T00:57:00;16.30;99.90
4245;DHT22;2136;48.502;9.194;2023-05-21T00:59:28;16.30;99.90
4245;DHT22;2136;48.502;9.194;2023-05-21T01:01:55;16.20;99.90
4245;DHT22;2136;48.502;9.194;2023-05-21T01:04:28;16.30;99.90
4245;DHT22;2136;48.502;9.194;2023-05-21T01:06:57;16.20;99.90
4245;DHT22;2136;48.502;9.194;2023-05-21T01:09:24;16.20;99.90
4245;DHT22;2136;48.502;9.194;2023-05-21T01:11:51;16.20;99.90
4245;DHT22;2136;48.502;9.194;2023-05-21T01:14:19;16.10;99.90
4245;DHT22;2136;48.502;9.194;2023-05-21T01:16:48;16.20;99.90
4245;DHT22;2136;48.502;9.194;2023-05-21T01:19:17;16.10;99.90
4245;DHT22;2136;48.502;9.194;2023-05-21T01:21:48;16.10;99.90
4245;DHT22;2136;48.502;9.194;2023-05-21T01:24:16;16.10;99.90
4245;DHT22;2136;48.502;9.194;2023-05-21T01:26:44;16.10;99.90
4245;DHT22;2136;48.502;9.194;2023-05-21T01:29:11;16.00;99.90
4245;DHT22;2136;48.502;9.194;2023-05-21T01:31:51;16.00;99.90
4245;DHT22;2136;48.502;9.194;2023-05-21T01:34:24;16.00;99.90
4245;DHT22;2136;48.502;9.194;2023-05-21T01:36:56;16.00;99.90
4245;DHT22;2136;48.502;9.194;2023-05-21T01:39:32;16.00;99.90
4245;DHT22;2136;48.502;9.194;2023-05-21T01:41:59;16.00;99.90
4245;DHT22;2136;48.502;9.194;2023-05-21T01:44:29;15.90;99.90
4245;DHT22;2136;48.502;9.194;2023-05-21T01:46:58;15.90;99.90
4245;DHT22;2136;48.502;9.194;2023-05-21T01:49:25;15.90;99.90
4245;DHT22;2136;48.502;9.194;2023-05-21T01:51:52;15.90;99.90
4245;DHT22;2136;48.502;9.194;2023-05-21T01:54:19;15.90;99.90
4245;DHT22;2136;48.502;9.194;2023-05-21T01:56:49;15.80;99.90
4245;DHT22;2136;48.502;9.194;2023-05-21T01:59:18;15.80;99.90
4245;DHT22;2136;48.502;9.194;2023-05-21T02:01:44;15.80;99.90
4245;DHT22;2136;48.502;9.194;2023-05-21T02:04:11;15.80;99.90
4245;DHT22;2136;48.502;9.194;2023-05-21T02:06:38;15.80;99.90
4245;DHT22;2136;48.502;9.194;2023-05-21T02:09:06;15.70;99.90
4245;DHT22;2136;48.502;9.194;2023-05-21T02:11:33;15.80;99.90
4245;DHT22;2136;48.502;9.194;2023-05-21T02:14:02;15.80;99.90
4245;DHT22;2136;48.502;9.194;2023-05-21T02:16:28;15.80;99.90
4245;DHT22;2136;48.502;9.194;2023-05-21T02:18:56;15.70;99.90
4245;DHT22;2136;48.502;9.194;2023-05-21T02:21:24;15.70;99.90
4245;DHT22;2136;48.502;9.194;2023-05-21T02:23:51;15.70;99.90
4245;DHT22;2136;48.502;9.194;2023-05-21T02:26:18;15.70;99.90
4245;DHT22;2136;48.502;9.194;2023-05-21T02:28:46;15.70;99.90
4245;DHT22;2136;48.502;9.194;2023-05-21T02:31:14;15.60;99.90
4245;DHT22;2136;48.502;9.194;2023-05-21T02:33:41;15.60;99.90
4245;DHT22;2136;48.502;9.194;2023-05-21T02:36:08;15.60;99.90
4245;DHT22;2136;48.502;9.194;2023-05-21T02:38:37;15.60;99.90
4245;DHT22;2136;48.502;9.194;2023-05-21T02:41:05;15.60;99.90
4245;DHT22;2136;48.502;9.194;2023-05-21T02:43:32;15.60;99.90
4245;DHT22;2136;48.502;9.194;2023-05-21T02:45:59;15.60;99.90
4245;DHT22;2136;48.502;9.194;2023-05-21T02:48:27;15.50;99.90
4245;DHT22;2136;48.502;9.194;2023-05-21T02:50:54;15.50;99.90
4245;DHT22;2136;48.502;9.194;2023-05-21T02:53:20;15.50;99.90
4245;DHT22;2136;48.502;9.194;2023-05-21T02:55:47;15.50;99.90
4245;DHT22;2136;48.502;9.194;2023-05-21T02:58:14;15.40;99.90
4245;DHT22;2136;48.502;9.194;2023-05-21T03:00:41;15.40;99.90
4245;DHT22;2136;48.502;9.194;2023-05-21T03:03:08;15.40;99.90
4245;DHT22;2136;48.502;9.194;2023-05-21T03:05:37;15.40;99.90
4245;DHT22;2136;48.502;9.194;2023-05-21T03:08:04;15.30;99.90
4245;DHT22;2136;48.502;9.194;2023-05-21T03:10:31;15.30;99.90
4245;DHT22;2136;48.502;9.194;2023-05-21T03:12:58;15.30;99.90
4245;DHT22;2136;48.502;9.194;2023-05-21T03:15:25;15.30;99.90
4245;DHT22;2136;48.502;9.194;2023-05-21T03:17:57;15.20;99.90
4245;DHT22;2136;48.502;9.194;2023-05-21T03:20:24;15.20;99.90
4245;DHT22;2136;48.502;9.194;2023-05-21T03:22:53;15.20;99.90
4245;DHT22;2136;48.502;9.194;2023-05-21T03:25:20;15.20;99.90
4245;DHT22;2136;48.502;9.194;2023-05-21T03:27:49;15.10;99.90
4245;DHT22;2136;48.502;9.194;2023-05-21T03:30:16;15.10;99.90
4245;DHT22;2136;48.502;9.194;2023-05-21T03:32:43;15.10;99.90
4245;DHT22;2136;48.502;9.194;2023-05-21T03:35:10;15.10;99.90
4245;DHT22;2136;48.502;9.194;2023-05-21T03:37:37;15.10;99.90
4245;DHT22;2136;48.502;9.194;2023-05-21T03:40:06;15.10;99.90
4245;DHT22;2136;48.502;9.194;2023-05-21T03:42:33;15.00;99.90
4245;DHT22;2136;48.502;9.194;2023-05-21T03:45:00;15.00;99.90
4245;DHT22;2136;48.502;9.194;2023-05-21T03:47:27;15.00;99.90
4245;DHT22;2136;48.502;9.194;2023-05-21T03:49:54;15.00;99.90
4245;DHT22;2136;48.502;9.194;2023-05-21T03:52:21;15.00;99.90
4245;DHT22;2136;48.502;9.194;2023-05-21T03:54:47;15.00;99.90
4245;DHT22;2136;48.502;9.194;2023-05-21T03:57:16;15.00;99.90
4245;DHT22;2136;48.502;9.194;2023-05-21T03:59:42;15.00;99.90
4245;DHT22;2136;48.502;9.194;2023-05-21T04:02:09;15.00;99.90
4245;DHT22;2136;48.502;9.194;2023-05-21T04:04:36;15.00;99.90
4245;DHT22;2136;48.502;9.194;2023-05-21T04:07:03;15.10;99.90
4245;DHT22;2136;48.502;9.194;2023-05-21T04:09:30;15.00;99.90
4245;DHT22;2136;48.502;9.194;2023-05-21T04:11:57;15.00;99.90
4245;DHT22;2136;48.502;9.194;2023-05-21T04:14:25;15.00;99.90
4245;DHT22;2136;48.502;9.194;2023-05-21T04:16:52;15.00;99.90
4245;DHT22;2136;48.502;9.194;2023-05-21T04:19:18;15.00;99.90
4245;DHT22;2136;48.502;9.194;2023-05-21T04:21:45;15.00;99.90
4245;DHT22;2136;48.502;9.194;2023-05-21T04:24:12;15.00;99.90
4245;DHT22;2136;48.502;9.194;2023-05-21T04:26:39;15.00;99.90
4245;DHT22;2136;48.502;9.194;2023-05-21T04:29:07;15.10;99.90
4245;DHT22;2136;48.502;9.194;2023-05-21T04:31:35;15.10;99.90
4245;DHT22;2136;48.502;9.194;2023-05-21T04:34:02;15.10;99.90
4245;DHT22;2136;48.502;9.194;2023-05-21T04:36:29;15.10;99.90
4245;DHT22;2136;48.502;9.194;2023-05-21T04:38:56;15.10;99.90
4245;DHT22;2136;48.502;9.194;2023-05-21T04:41:23;15.10;99.90
4245;DHT22;2136;48.502;9.194;2023-05-21T04:43:50;15.10;99.90
4245;DHT22;2136;48.502;9.194;2023-05-21T04:46:19;15.20;99.90
4245;DHT22;2136;48.502;9.194;2023-05-21T04:48:51;15.20;99.90
4245;DHT22;2136;48.502;9.194;2023-05-21T04:51:21;15.20;99.90
4245;DHT22;2136;48.502;9.194;2023-05-21T04:53:49;15.30;99.90
4245;DHT22;2136;48.502;9.194;2023-05-21T04:56:16;15.30;99.90
4245;DHT22;2136;48.502;9.194;2023-05-21T04:58:43;15.30;99.90
4245;DHT22;2136;48.502;9.194;2023-05-21T05:01:10;15.30;99.90
4245;DHT22;2136;48.502;9.194;2023-05-21T05:03:37;15.40;99.90
4245;DHT22;2136;48.502;9.194;2023-05-21T05:06:05;15.40;99.90
4245;DHT22;2136;48.502;9.194;2023-05-21T05:08:33;15.50;99.90
4245;DHT22;2136;48.502;9.194;2023-05-21T05:11:00;15.60;99.90
4245;DHT22;2136;48.502;9.194;2023-05-21T05:13:26;15.50;99.90
4245;DHT22;2136;48.502;9.194;2023-05-21T05:15:53;15.60;99.90
4245;DHT22;2136;48.502;9.194;2023-05-21T05:18:21;15.70;99.90
4245;DHT22;2136;48.502;9.194;2023-05-21T05:20:48;15.70;99.90
4245;DHT22;2136;48.502;9.194;2023-05-21T05:23:16;15.70;99.90
4245;DHT22;2136;48.502;9.194;2023-05-21T05:25:43;15.80;99.90
4245;DHT22;2136;48.502;9.194;2023-05-21T05:28:10;15.80;99.90
4245;DHT22;2136;48.502;9.194;2023-05-21T05:30:37;15.80;99.90
4245;DHT22;2136;48.502;9.194;2023-05-21T05:33:04;16.00;99.90
4245;DHT22;2136;48.502;9.194;2023-05-21T05:35:31;15.90;99.90
4245;DHT22;2136;48.502;9.194;2023-05-21T05:37:57;16.00;99.90
4245;DHT22;2136;48.502;9.194;2023-05-21T05:40:26;16.00;99.90
4245;DHT22;2136;48.502;9.194;2023-05-21T05:42:53;16.10;99.90
4245;DHT22;2136;48.502;9.194;2023-05-21T05:45:20;16.10;99.90
4245;DHT22;2136;48.502;9.194;2023-05-21T05:47:46;16.10;99.90
4245;DHT22;2136;48.502;9.194;2023-05-21T05:50:13;16.20;99.90
4245;DHT22;2136;48.502;9.194;2023-05-21T05:52:40;16.30;99.90
4245;DHT22;2136;48.502;9.194;2023-05-21T05:55:08;16.30;99.90
4245;DHT22;2136;48.502;9.194;2023-05-21T05:57:38;16.40;99.90
4245;DHT22;2136;48.502;9.194;2023-05-21T06:00:05;16.40;99.90
4245;DHT22;2136;48.502;9.194;2023-05-21T06:02:33;16.40;99.90
4245;DHT22;2136;48.502;9.194;2023-05-21T06:05:00;16.60;99.90
4245;DHT22;2136;48.502;9.194;2023-05-21T06:07:27;16.50;99.90
4245;DHT22;2136;48.502;9.194;2023-05-21T06:09:54;16.60;99.60
4245;DHT22;2136;48.502;9.194;2023-05-21T06:12:21;16.70;99.20
4245;DHT22;2136;48.502;9.194;2023-05-21T06:14:49;16.70;98.40
4245;DHT22;2136;48.502;9.194;2023-05-21T06:17:16;16.80;98.00
4245;DHT22;2136;48.502;9.194;2023-05-21T06:19:43;16.80;97.70
4245;DHT22;2136;48.502;9.194;2023-05-21T06:22:10;16.90;97.50
4245;DHT22;2136;48.502;9.194;2023-05-21T06:24:37;17.00;97.20
4245;DHT22;2136;48.502;9.194;2023-05-21T06:27:04;17.00;97.00
4245;DHT22;2136;48.502;9.194;2023-05-21T06:29:31;17.10;96.40
4245;DHT22;2136;48.502;9.194;2023-05-21T06:31:59;17.20;96.20
4245;DHT22;2136;48.502;9.194;2023-05-21T06:34:26;17.20;95.80
4245;DHT22;2136;48.502;9.194;2023-05-21T06:36:53;17.30;95.50
4245;DHT22;2136;48.502;9.194;2023-05-21T06:39:20;17.40;95.30
4245;DHT22;2136;48.502;9.194;2023-05-21T06:41:47;17.40;95.00
4245;DHT22;2136;48.502;9.194;2023-05-21T06:44:13;17.50;94.90
4245;DHT22;2136;48.502;9.194;2023-05-21T06:46:41;17.60;94.80
4245;DHT22;2136;48.502;9.194;2023-05-21T06:49:09;17.60;94.50
4245;DHT22;2136;48.502;9.194;2023-05-21T06:51:38;17.70;94.40
4245;DHT22;2136;48.502;9.194;2023-05-21T06:54:05;17.80;93.90
4245;DHT22;2136;48.502;9.194;2023-05-21T06:56:31;17.90;93.60
4245;DHT22;2136;48.502;9.194;2023-05-21T06:58:58;17.90;93.20
4245;DHT22;2136;48.502;9.194;2023-05-21T07:01:25;17.90;93.10
4245;DHT22;2136;48.502;9.194;2023-05-21T07:03:52;18.00;93.30
4245;DHT22;2136;48.502;9.194;2023-05-21T07:06:20;18.10;93.10
4245;DHT22;2136;48.502;9.194;2023-05-21T07:08:47;18.20;93.20
4245;DHT22;2136;48.502;9.194;2023-05-21T07:11:14;18.30;93.20
4245;DHT22;2136;48.502;9.194;2023-05-21T07:13:41;18.50;93.20
4245;DHT22;2136;48.502;9.194;2023-05-21T07:16:08;18.60;93.20
4245;DHT22;2136;48.502;9.194;2023-05-21T07:18:35;18.70;93.30
4245;DHT22;2136;48.502;9.194;2023-05-21T07:21:02;18.90;92.60
4245;DHT22;2136;48.502;9.194;2023-05-21T07:23:31;19.00;91.70
4245;DHT22;2136;48.502;9.194;2023-05-21T07:25:58;19.20;91.60
4245;DHT22;2136;48.502;9.194;2023-05-21T07:28:25;19.30;91.50
4245;DHT22;2136;48.502;9.194;2023-05-21T07:30:52;19.40;91.20
4245;DHT22;2136;48.502;9.194;2023-05-21T07:33:18;19.50;90.80
4245;DHT22;2136;48.502;9.194;2023-05-21T07:35:47;19.60;89.40
4245;DHT22;2136;48.502;9.194;2023-05-21T07:38:14;19.70;88.30
4245;DHT22;2136;48.502;9.194;2023-05-21T07:40:43;19.80;86.70
4245;DHT22;2136;48.502;9.194;2023-05-21T07:43:11;19.90;85.80
4245;DHT22;2136;48.502;9.194;2023-05-21T07:45:38;20.00;85.00
4245;DHT22;2136;48.502;9.194;2023-05-21T07:48:05;20.00;83.60
4245;DHT22;2136;48.502;9.194;2023-05-21T07:50:32;20.10;83.80
4245;DHT22;2136;48.502;9.194;2023-05-21T07:52:59;20.30;84.30
4245;DHT22;2136;48.502;9.194;2023-05-21T07:55:26;20.40;84.80
4245;DHT22;2136;48.502;9.194;2023-05-21T07:57:54;20.50;85.20
4245;DHT22;2136;48.502;9.194;2023-05-21T08:00:22;20.60;84.20
4245;DHT22;2136;48.502;9.194;2023-05-21T08:02:49;20.70;83.20
4245;DHT22;2136;48.502;9.194;2023-05-21T08:05:16;20.80;82.20
4245;DHT22;2136;48.502;9.194;2023-05-21T08:07:43;20.90;79.80
4245;DHT22;2136;48.502;9.194;2023-05-21T08:10:10;21.00;78.70
4245;DHT22;2136;48.502;9.194;2023-05-21T08:12:37;21.00;78.30
4245;DHT22;2136;48.502;9.194;2023-05-21T08:15:06;21.10;78.00
4245;DHT22;2136;48.502;9.194;2023-05-21T08:17:33;21.20;77.80
4245;DHT22;2136;48.502;9.194;2023-05-21T08:20:00;21.40;78.50
4245;DHT22;2136;48.502;9.194;2023-05-21T08:22:27;21.50;79.10
4245;DHT22;2136;48.502;9.194;2023-05-21T08:24:53;21.60;77.90
4245;DHT22;2136;48.502;9.194;2023-05-21T08:27:20;21.70;76.70
4245;DHT22;2136;48.502;9.194;2023-05-21T08:29:47;21.80;76.40
4245;DHT22;2136;48.502;9.194;2023-05-21T08:32:15;21.80;76.40
4245;DHT22;2136;48.502;9.194;2023-05-21T08:34:42;22.00;76.90
4245;DHT22;2136;48.502;9.194;2023-05-21T08:37:09;22.10;76.10
4245;DHT22;2136;48.502;9.194;2023-05-21T08:39:36;22.30;75.70
4245;DHT22;2136;48.502;9.194;2023-05-21T08:42:08;22.50;75.20
4245;DHT22;2136;48.502;9.194;2023-05-21T08:44:37;22.60;75.00
4245;DHT22;2136;48.502;9.194;2023-05-21T08:47:09;22.80;74.40
4245;DHT22;2136;48.502;9.194;2023-05-21T08:49:39;23.00;73.80
4245;DHT22;2136;48.502;9.194;2023-05-21T08:52:07;23.10;71.30
4245;DHT22;2136;48.502;9.194;2023-05-21T08:54:35;23.30;70.10
4245;DHT22;2136;48.502;9.194;2023-05-21T08:57:04;23.50;69.50
4245;DHT22;2136;48.502;9.194;2023-05-21T08:59:31;23.70;68.90
4245;DHT22;2136;48.502;9.194;2023-05-21T09:01:58;23.90;68.40
4245;DHT22;2136;48.502;9.194;2023-05-21T09:04:25;24.10;67.70
4245;DHT22;2136;48.502;9.194;2023-05-21T09:06:54;24.20;66.30
4245;DHT22;2136;48.502;9.194;2023-05-21T09:09:27;24.40;65.70
4245;DHT22;2136;48.502;9.194;2023-05-21T09:11:57;24.60;65.80
4245;DHT22;2136;48.502;9.194;2023-05-21T09:14:25;24.70;65.10
4245;DHT22;2136;48.502;9.194;2023-05-21T09:16:52;24.80;65.10
4245;DHT22;2136;48.502;9.194;2023-05-21T09:19:19;25.00;64.40
4245;DHT22;2136;48.502;9.194;2023-05-21T09:21:46;25.10;64.30
4245;DHT22;2136;48.502;9.194;2023-05-21T09:24:14;25.20;64.50
4245;DHT22;2136;48.502;9.194;2023-05-21T09:26:42;25.40;63.50
4245;DHT22;2136;48.502;9.194;2023-05-21T09:29:08;25.50;63.20
4245;DHT22;2136;48.502;9.194;2023-05-21T09:31:35;25.70;62.90
4245;DHT22;2136;48.502;9.194;2023-05-21T09:34:02;25.80;63.20
4245;DHT22;2136;48.502;9.194;2023-05-21T09:36:29;26.00;61.80
4245;DHT22;2136;48.502;9.194;2023-05-21T09:38:56;26.20;61.40
4245;DHT22;2136;48.502;9.194;2023-05-21T09:41:31;26.40;60.80
4245;DHT22;2136;48.502;9.194;2023-05-21T09:44:00;26.70;59.70
4245;DHT22;2136;48.502;9.194;2023-05-21T09:46:27;26.80;59.10
4245;DHT22;2136;48.502;9.194;2023-05-21T09:49:02;27.00;58.60
4245;DHT22;2136;48.502;9.194;2023-05-21T09:51:29;27.20;57.20
4245;DHT22;2136;48.502;9.194;2023-05-21T09:53:56;27.50;57.00
4245;DHT22;2136;48.502;9.194;2023-05-21T09:56:24;27.80;56.30
4245;DHT22;2136;48.502;9.194;2023-05-21T09:58:55;28.30;56.50
4245;DHT22;2136;48.502;9.194;2023-05-21T10:01:23;28.70;55.40
4245;DHT22;2136;48.502;9.194;2023-05-21T10:03:54;29.20;55.30
4245;DHT22;2136;48.502;9.194;2023-05-21T10:06:23;29.70;53.00
4245;DHT22;2136;48.502;9.194;2023-05-21T10:08:53;29.90;51.80
4245;DHT22;2136;48.502;9.194;2023-05-21T10:11:22;30.40;51.70
4245;DHT22;2136;48.502;9.194;2023-05-21T10:13:56;31.00;50.90
4245;DHT22;2136;48.502;9.194;2023-05-21T10:16:23;31.50;49.40
4245;DHT22;2136;48.502;9.194;2023-05-21T10:18:50;31.90;48.70
4245;DHT22;2136;48.502;9.194;2023-05-21T10:21:20;32.20;47.80
4245;DHT22;2136;48.502;9.194;2023-05-21T10:23:48;32.30;47.10
4245;DHT22;2136;48.502;9.194;2023-05-21T10:26:15;32.30;46.50
4245;DHT22;2136;48.502;9.194;2023-05-21T10:28:43;32.30;47.10
4245;DHT22;2136;48.502;9.194;2023-05-21T10:31:12;32.50;47.30
4245;DHT22;2136;48.502;9.194;2023-05-21T10:33:40;32.50;46.90
4245;DHT22;2136;48.502;9.194;2023-05-21T10:36:07;32.40;46.10
4245;DHT22;2136;48.502;9.194;2023-05-21T10:38:35;32.30;46.60
4245;DHT22;2136;48.502;9.194;2023-05-21T10:41:03;32.30;46.50
4245;DHT22;2136;48.502;9.194;2023-05-21T10:43:44;32.20;45.90
4245;DHT22;2136;48.502;9.194;2023-05-21T10:46:42;32.00;46.30
4245;DHT22;2136;48.502;9.194;2023-05-21T10:49:25;32.10;46.50
4245;DHT22;2136;48.502;9.194;2023-05-21T10:52:03;32.70;46.90
4245;DHT22;2136;48.502;9.194;2023-05-21T10:54:49;33.30;46.30
4245;DHT22;2136;48.502;9.194;2023-05-21T10:57:30;33.80;44.70
4245;DHT22;2136;48.502;9.194;2023-05-21T11:00:00;33.90;44.50
4245;DHT22;2136;48.502;9.194;2023-05-21T11:02:29;34.00;44.70
4245;DHT22;2136;48.502;9.194;2023-05-21T11:05:00;34.30;44.40
4245;DHT22;2136;48.502;9.194;2023-05-21T11:07:50;34.50;43.70
4245;DHT22;2136;48.502;9.194;2023-05-21T11:10:36;34.50;43.40
4245;DHT22;2136;48.502;9.194;2023-05-21T11:13:07;34.40;43.40
4245;DHT22;2136;48.502;9.194;2023-05-21T11:16:12;34.30;43.80
4245;DHT22;2136;48.502;9.194;2023-05-21T11:18:59;34.40;43.30
4245;DHT22;2136;48.502;9.194;2023-05-21T11:21:31;34.60;43.20
4245;DHT22;2136;48.502;9.194;2023-05-21T11:24:04;34.70;43.30
4245;DHT22;2136;48.502;9.194;2023-05-21T11:27:00;35.10;43.70
4245;DHT22;2136;48.502;9.194;2023-05-21T11:29:39;35.80;42.80
4245;DHT22;2136;48.502;9.194;2023-05-21T11:32:08;36.40;42.20
4245;DHT22;2136;48.502;9.194;2023-05-21T11:34:40;36.60;41.20
4245;DHT22;2136;48.502;9.194;2023-05-21T11:37:30;36.50;39.70
4245;DHT22;2136;48.502;9.194;2023-05-21T11:40:22;36.20;39.80
4245;DHT22;2136;48.502;9.194;2023-05-21T11:42:51;35.80;39.60
4245;DHT22;2136;48.502;9.194;2023-05-21T11:45:19;35.40;39.30
4245;DHT22;2136;48.502;9.194;2023-05-21T11:47:47;35.30;40.00
4245;DHT22;2136;48.502;9.194;2023-05-21T11:50:15;35.00;39.80
4245;DHT22;2136;48.502;9.194;2023-05-21T11:52:43;35.10;39.70
4245;DHT22;2136;48.502;9.194;2023-05-21T11:55:10;35.10;39.80
4245;DHT22;2136;48.502;9.194;2023-05-21T11:57:41;35.10;40.00
4245;DHT22;2136;48.502;9.194;2023-05-21T12:00:13;34.90;39.90
4245;DHT22;2136;48.502;9.194;2023-05-21T12:02:44;34.30;39.60
4245;DHT22;2136;48.502;9.194;2023-05-21T12:05:11;33.70;40.50
4245;DHT22;2136;48.502;9.194;2023-05-21T12:07:40;33.10;41.40
4245;DHT22;2136;48.502;9.194;2023-05-21T12:10:07;32.40;41.90
4245;DHT22;2136;48.502;9.194;2023-05-21T12:12:34;31.90;42.40
4245;DHT22;2136;48.502;9.194;2023-05-21T12:15:02;31.50;43.30
4245;DHT22;2136;48.502;9.194;2023-05-21T12:17:30;31.10;44.00
4245;DHT22;2136;48.502;9.194;2023-05-21T12:19:57;30.80;43.70
4245;DHT22;2136;48.502;9.194;2023-05-21T12:22:26;30.50;44.30
4245;DHT22;2136;48.502;9.194;2023-05-21T12:24:55;30.40;44.90
4245;DHT22;2136;48.502;9.194;2023-05-21T12:27:25;30.30;45.20
4245;DHT22;2136;48.502;9.194;2023-05-21T12:29:53;30.30;45.10
4245;DHT22;2136;48.502;9.194;2023-05-21T12:32:20;30.20;45.00
4245;DHT22;2136;48.502;9.194;2023-05-21T12:34:48;30.30;45.40
4245;DHT22;2136;48.502;9.194;2023-05-21T12:37:17;30.30;45.00
4245;DHT22;2136;48.502;9.194;2023-05-21T12:39:46;30.30;44.60
4245;DHT22;2136;48.502;9.194;2023-05-21T12:42:14;30.10;44.70
4245;DHT22;2136;48.502;9.194;2023-05-21T12:44:43;29.80;45.00
4245;DHT22;2136;48.502;9.194;2023-05-21T12:47:11;29.40;46.00
4245;DHT22;2136;48.502;9.194;2023-05-21T12:49:39;29.10;47.10
4245;DHT22;2136;48.502;9.194;2023-05-21T12:52:11;28.80;47.40
4245;DHT22;2136;48.502;9.194;2023-05-21T12:54:39;28.50;47.70
4245;DHT22;2136;48.502;9.194;2023-05-21T12:57:08;28.30;48.20
4245;DHT22;2136;48.502;9.194;2023-05-21T12:59:45;28.00;48.60
4245;DHT22;2136;48.502;9.194;2023-05-21T13:02:14;27.90;49.00
4245;DHT22;2136;48.502;9.194;2023-05-21T13:04:41;27.80;50.00
4245;DHT22;2136;48.502;9.194;2023-05-21T13:07:08;27.60;50.30
4245;DHT22;2136;48.502;9.194;2023-05-21T13:09:35;27.50;49.80
4245;DHT22;2136;48.502;9.194;2023-05-21T13:12:02;27.30;50.90
4245;DHT22;2136;48.502;9.194;2023-05-21T13:14:29;27.30;50.50
4245;DHT22;2136;48.502;9.194;2023-05-21T13:16:58;27.20;50.30
4245;DHT22;2136;48.502;9.194;2023-05-21T13:19:24;27.10;51.00
4245;DHT22;2136;48.502;9.194;2023-05-21T13:21:51;26.90;51.20
4245;DHT22;2136;48.502;9.194;2023-05-21T13:24:18;26.80;51.40
4245;DHT22;2136;48.502;9.194;2023-05-21T13:26:45;26.70;51.40
4245;DHT22;2136;48.502;9.194;2023-05-21T13:29:12;26.60;52.20
4245;DHT22;2136;48.502;9.194;2023-05-21T13:31:40;26.50;51.70
4245;DHT22;2136;48.502;9.194;2023-05-21T13:34:08;26.50;51.60
4245;DHT22;2136;48.502;9.194;2023-05-21T13:36:35;26.40;52.00
4245;DHT22;2136;48.502;9.194;2023-05-21T13:39:02;26.40;52.30
4245;DHT22;2136;48.502;9.194;2023-05-21T13:41:29;26.30;52.80
4245;DHT22;2136;48.502;9.194;2023-05-21T13:43:57;26.30;52.70
4245;DHT22;2136;48.502;9.194;2023-05-21T13:46:24;26.30;52.70
4245;DHT22;2136;48.502;9.194;2023-05-21T13:48:51;26.30;53.30
4245;DHT22;2136;48.502;9.194;2023-05-21T13:51:19;26.30;53.10
4245;DHT22;2136;48.502;9.194;2023-05-21T13:53:46;26.40;53.30
4245;DHT22;2136;48.502;9.194;2023-05-21T13:56:13;26.50;53.00
4245;DHT22;2136;48.502;9.194;2023-05-21T13:58:40;26.50;53.10
4245;DHT22;2136;48.502;9.194;2023-05-21T14:01:06;26.70;53.30
4245;DHT22;2136;48.502;9.194;2023-05-21T14:03:33;26.80;53.50
4245;DHT22;2136;48.502;9.194;2023-05-21T14:06:00;26.90;54.10
4245;DHT22;2136;48.502;9.194;2023-05-21T14:08:28;26.90;53.10
4245;DHT22;2136;48.502;9.194;2023-05-21T14:10:56;26.90;52.80
4245;DHT22;2136;48.502;9.194;2023-05-21T14:13:22;26.90;53.10
4245;DHT22;2136;48.502;9.194;2023-05-21T14:15:49;26.90;53.10
4245;DHT22;2136;48.502;9.194;2023-05-21T14:18:16;26.90;53.10
4245;DHT22;2136;48.502;9.194;2023-05-21T14:20:43;27.00;53.10
4245;DHT22;2136;48.502;9.194;2023-05-21T14:23:10;26.90;53.00
4245;DHT22;2136;48.502;9.194;2023-05-21T14:25:38;26.90;52.70
4245;DHT22;2136;48.502;9.194;2023-05-21T14:28:05;26.80;52.80
4245;DHT22;2136;48.502;9.194;2023-05-21T14:30:32;26.90;53.10
4245;DHT22;2136;48.502;9.194;2023-05-21T14:32:59;26.80;53.20
4245;DHT22;2136;48.502;9.194;2023-05-21T14:35:26;26.80;53.30
4245;DHT22;2136;48.502;9.194;2023-05-21T14:37:53;26.90;53.40
4245;DHT22;2136;48.502;9.194;2023-05-21T14:40:20;26.90;53.60
4245;DHT22;2136;48.502;9.194;2023-05-21T14:42:48;26.90;54.00
4245;DHT22;2136;48.502;9.194;2023-05-21T14:45:16;27.00;54.00
4245;DHT22;2136;48.502;9.194;2023-05-21T14:47:44;26.90;52.70
4245;DHT22;2136;48.502;9.194;2023-05-21T14:50:12;26.90;52.90
4245;DHT22;2136;48.502;9.194;2023-05-21T14:52:39;26.90;52.60
4245;DHT22;2136;48.502;9.194;2023-05-21T14:55:08;26.80;52.10
4245;DHT22;2136;48.502;9.194;2023-05-21T14:57:36;26.70;51.50
4245;DHT22;2136;48.502;9.194;2023-05-21T15:00:06;26.70;51.60
4245;DHT22;2136;48.502;9.194;2023-05-21T15:02:33;26.70;52.00
4245;DHT22;2136;48.502;9.194;2023-05-21T15:05:00;26.60;52.40
4245;DHT22;2136;48.502;9.194;2023-05-21T15:07:27;26.60;52.20
4245;DHT22;2136;48.502;9.194;2023-05-21T15:09:54;26.40;51.80
4245;DHT22;2136;48.502;9.194;2023-05-21T15:12:20;26.30;51.50
4245;DHT22;2136;48.502;9.194;2023-05-21T15:14:47;26.10;51.80
4245;DHT22;2136;48.502;9.194;2023-05-21T15:17:15;26.00;52.00
4245;DHT22;2136;48.502;9.194;2023-05-21T15:19:42;25.90;52.70
4245;DHT22;2136;48.502;9.194;2023-05-21T15:22:09;25.80;53.00
4245;DHT22;2136;48.502;9.194;2023-05-21T15:24:36;25.70;53.30
4245;DHT22;2136;48.502;9.194;2023-05-21T15:27:03;25.60;53.50
4245;DHT22;2136;48.502;9.194;2023-05-21T15:29:30;25.40;53.40
4245;DHT22;2136;48.502;9.194;2023-05-21T15:31:57;25.40;53.40
4245;DHT22;2136;48.502;9.194;2023-05-21T15:34:26;25.20;53.80
4245;DHT22;2136;48.502;9.194;2023-05-21T15:36:53;25.10;54.20
4245;DHT22;2136;48.502;9.194;2023-05-21T15:39:22;25.00;54.60
4245;DHT22;2136;48.502;9.194;2023-05-21T15:41:49;24.90;54.50
4245;DHT22;2136;48.502;9.194;2023-05-21T15:44:17;24.80;54.60
4245;DHT22;2136;48.502;9.194;2023-05-21T15:46:44;24.70;55.00
4245;DHT22;2136;48.502;9.194;2023-05-21T15:49:14;24.60;54.90
4245;DHT22;2136;48.502;9.194;2023-05-21T15:51:42;24.50;54.80
4245;DHT22;2136;48.502;9.194;2023-05-21T15:54:10;24.40;54.70
4245;DHT22;2136;48.502;9.194;2023-05-21T15:56:37;24.30;55.00
4245;DHT22;2136;48.502;9.194;2023-05-21T15:59:05;24.30;55.50
4245;DHT22;2136;48.502;9.194;2023-05-21T16:01:31;24.20;55.50
4245;DHT22;2136;48.502;9.194;2023-05-21T16:04:00;24.20;55.80
4245;DHT22;2136;48.502;9.194;2023-05-21T16:06:27;24.10;56.60
4245;DHT22;2136;48.502;9.194;2023-05-21T16:08:55;24.10;57.40